createdAt,value
2017-11-23T00:00:15.710Z,10.46
2017-11-23T00:00:56.332Z,10.46
2017-11-23T00:01:36.577Z,10.43
2017-11-23T00:02:16.959Z,10.43
2017-11-23T00:02:57.517Z,10.49
2017-11-23T00:03:37.951Z,10.52
2017-11-23T00:04:18.596Z,10.6
2017-11-23T00:04:58.981Z,10.52
2017-11-23T00:05:39.308Z,10.55
2017-11-23T00:06:19.715Z,10.52
2017-11-23T00:07:00.147Z,10.52
2017-11-23T00:07:40.659Z,10.49
2017-11-23T00:08:20.993Z,10.54
2017-11-23T00:09:01.530Z,10.43
2017-11-23T00:09:42.049Z,10.43
2017-11-23T00:10:22.741Z,10.49
2017-11-23T00:11:02.974Z,10.58
2017-11-23T00:11:44.262Z,10.44
2017-11-23T00:12:24.608Z,10.44
2017-11-23T00:13:05.634Z,10.49
2017-11-23T00:13:45.989Z,10.55
2017-11-23T00:14:26.681Z,10.42
2017-11-23T00:15:06.907Z,10.38
2017-11-23T00:15:47.331Z,10.47
2017-11-23T00:16:28.091Z,10.46
2017-11-23T00:17:08.227Z,10.44
2017-11-23T00:17:48.636Z,10.47
2017-11-23T00:18:29.031Z,10.47
2017-11-23T00:19:09.433Z,10.47
2017-11-23T00:19:49.876Z,10.49
2017-11-23T00:20:30.458Z,10.55
2017-11-23T00:21:10.696Z,10.54
2017-11-23T00:21:51.158Z,10.42
2017-11-23T00:22:31.925Z,10.43
2017-11-23T00:23:12.189Z,10.49
2017-11-23T00:23:55.580Z,10.49
2017-11-23T00:24:36.364Z,10.49
2017-11-23T00:25:16.521Z,10.46
2017-11-23T00:25:59.391Z,10.55
2017-11-23T00:26:40.271Z,10.46
2017-11-23T00:27:21.226Z,10.47
2017-11-23T00:28:02.051Z,10.54
2017-11-23T00:28:43.100Z,10.51
2017-11-23T00:29:23.595Z,10.49
2017-11-23T00:31:16.116Z,10.69
2017-11-23T00:32:08.845Z,10.63
2017-11-23T00:33:01.064Z,10.69
2017-11-23T00:33:44.396Z,10.87
2017-11-23T00:34:24.840Z,10.95
2017-11-23T00:35:05.304Z,11.06
2017-11-23T00:35:45.645Z,11.13
2017-11-23T00:36:26.061Z,11.19
2017-11-23T00:37:06.409Z,11.36
2017-11-23T00:37:46.902Z,11.39
2017-11-23T00:38:27.374Z,11.57
2017-11-23T00:39:07.876Z,11.67
2017-11-23T00:39:48.316Z,11.69
2017-11-23T00:40:28.610Z,11.77
2017-11-23T00:41:09.070Z,11.74
2017-11-23T00:41:49.434Z,11.57
2017-11-23T00:42:29.849Z,11.74
2017-11-23T00:43:10.313Z,11.63
2017-11-23T00:43:50.729Z,11.49
2017-11-23T00:44:31.048Z,11.57
2017-11-23T00:45:11.607Z,11.53
2017-11-23T00:45:52.155Z,11.53
2017-11-23T00:46:32.541Z,11.53
2017-11-23T00:47:12.913Z,11.56
2017-11-23T00:47:53.405Z,11.48
2017-11-23T00:48:33.973Z,11.42
2017-11-23T00:49:14.470Z,11.38
2017-11-23T00:49:54.945Z,11.31
2017-11-23T00:50:35.264Z,11.26
2017-11-23T00:51:15.748Z,11.3
2017-11-23T00:51:56.218Z,11.16
2017-11-23T00:52:36.778Z,11.2
2017-11-23T00:53:17.177Z,11.11
2017-11-23T00:53:57.650Z,11.03
2017-11-23T00:54:38.028Z,11.03
2017-11-23T00:55:18.448Z,10.86
2017-11-23T00:55:58.908Z,10.91
2017-11-23T00:56:39.315Z,10.84
2017-11-23T00:57:19.731Z,10.78
2017-11-23T00:58:00.082Z,10.69
2017-11-23T00:58:40.688Z,10.69
2017-11-23T00:59:21.075Z,10.6
2017-11-23T01:00:01.387Z,10.49
2017-11-23T01:00:41.855Z,10.57
2017-11-23T01:01:22.185Z,10.47
2017-11-23T01:02:02.581Z,10.42
2017-11-23T01:02:43.077Z,10.47
2017-11-23T01:03:23.550Z,10.44
2017-11-23T01:04:04.045Z,10.43
2017-11-23T01:04:44.435Z,10.43
2017-11-23T01:05:24.780Z,10.47
2017-11-23T01:06:05.313Z,10.44
2017-11-23T01:06:45.747Z,10.46
2017-11-23T01:07:26.248Z,10.46
2017-11-23T01:08:06.699Z,10.52
2017-11-23T01:08:47.102Z,10.55
2017-11-23T01:09:27.507Z,10.49
2017-11-23T01:10:08.001Z,10.47
2017-11-23T01:10:48.457Z,10.46
2017-11-23T01:11:28.962Z,10.39
2017-11-23T01:12:09.481Z,10.44
2017-11-23T01:12:49.942Z,10.28
2017-11-23T01:13:30.455Z,10.31
2017-11-23T01:14:10.854Z,10.31
2017-11-23T01:14:51.245Z,10.36
2017-11-23T01:15:31.685Z,10.26
2017-11-23T01:16:12.072Z,10.29
2017-11-23T01:16:52.417Z,10.35
2017-11-23T01:17:32.878Z,10.36
2017-11-23T01:18:13.278Z,10.34
2017-11-23T01:18:53.766Z,10.38
2017-11-23T01:19:34.300Z,10.46
2017-11-23T01:20:14.825Z,10.54
2017-11-23T01:20:55.342Z,10.51
2017-11-23T01:21:35.735Z,10.54
2017-11-23T01:22:16.219Z,10.43
2017-11-23T01:22:56.662Z,10.39
2017-11-23T01:23:36.988Z,10.49
2017-11-23T01:24:17.450Z,10.46
2017-11-23T01:24:57.916Z,10.51
2017-11-23T01:25:38.314Z,10.47
2017-11-23T01:26:18.704Z,10.55
2017-11-23T01:26:59.130Z,10.55
2017-11-23T01:27:39.586Z,10.6
2017-11-23T01:28:20.000Z,10.57
2017-11-23T01:29:00.360Z,10.7
2017-11-23T01:29:40.840Z,10.66
2017-11-23T01:30:21.304Z,10.7
2017-11-23T01:31:01.755Z,10.7
2017-11-23T01:31:42.153Z,10.75
2017-11-23T01:32:22.529Z,10.84
2017-11-23T01:33:02.962Z,10.91
2017-11-23T01:33:43.316Z,10.88
2017-11-23T01:34:23.746Z,10.91
2017-11-23T01:35:04.122Z,10.9
2017-11-23T01:35:44.638Z,10.87
2017-11-23T01:36:25.001Z,11.01
2017-11-23T01:37:05.351Z,10.99
2017-11-23T01:37:45.773Z,11.03
2017-11-23T01:38:26.151Z,10.95
2017-11-23T01:39:06.597Z,10.91
2017-11-23T01:39:47.076Z,10.91
2017-11-23T01:40:27.468Z,10.88
2017-11-23T01:41:07.859Z,10.81
2017-11-23T01:41:48.293Z,10.8
2017-11-23T01:42:28.654Z,10.83
2017-11-23T01:43:09.057Z,10.69
2017-11-23T01:43:49.566Z,10.73
2017-11-23T01:44:30.009Z,10.73
2017-11-23T01:45:10.530Z,10.7
2017-11-23T01:45:50.952Z,10.7
2017-11-23T01:46:31.331Z,10.7
2017-11-23T01:47:11.721Z,10.72
2017-11-23T01:47:52.196Z,10.73
2017-11-23T01:48:32.698Z,10.7
2017-11-23T01:49:12.988Z,10.81
2017-11-23T01:49:53.501Z,10.75
2017-11-23T01:50:33.915Z,10.75
2017-11-23T01:51:14.273Z,10.65
2017-11-23T01:51:54.813Z,10.73
2017-11-23T01:52:35.173Z,10.65
2017-11-23T01:53:15.620Z,10.73
2017-11-23T01:53:56.017Z,10.7
2017-11-23T01:54:36.397Z,10.78
2017-11-23T01:55:16.757Z,10.7
2017-11-23T01:58:36.586Z,10.88
2017-11-23T01:59:22.079Z,10.93
2017-11-23T02:00:02.474Z,10.99
2017-11-23T02:00:42.925Z,11.08
2017-11-23T02:01:23.317Z,11.09
2017-11-23T02:02:03.812Z,11.09
2017-11-23T02:04:22.733Z,10.95
2017-11-23T02:05:13.901Z,10.99
2017-11-23T02:07:08.033Z,10.9
2017-11-23T02:09:09.234Z,10.72
2017-11-23T02:11:07.863Z,10.63
2017-11-23T02:11:49.917Z,10.57
2017-11-23T02:12:30.921Z,10.54
2017-11-23T02:13:11.150Z,10.54
2017-11-23T02:13:52.853Z,10.47
2017-11-23T02:14:34.435Z,10.54
2017-11-23T02:15:16.564Z,10.58
2017-11-23T02:15:57.535Z,10.49
2017-11-23T02:16:37.895Z,10.49
2017-11-23T02:17:18.501Z,10.58
2017-11-23T02:17:59.236Z,10.55
2017-11-23T02:18:39.651Z,10.63
2017-11-23T02:19:20.008Z,10.6
2017-11-23T02:20:01.344Z,10.6
2017-11-23T02:20:41.801Z,10.54
2017-11-23T02:21:22.822Z,10.58
2017-11-23T02:22:04.657Z,10.63
2017-11-23T02:22:48.301Z,10.66
2017-11-23T02:23:29.294Z,10.66
2017-11-23T02:24:09.368Z,10.68
2017-11-23T02:24:49.748Z,10.69
2017-11-23T02:25:31.190Z,10.68
2017-11-23T02:26:11.752Z,10.66
2017-11-23T02:26:52.343Z,10.69
2017-11-23T02:27:32.455Z,10.7
2017-11-23T02:28:13.787Z,10.72
2017-11-23T02:28:54.253Z,10.75
2017-11-23T02:29:35.546Z,10.7
2017-11-23T02:30:15.809Z,10.75
2017-11-23T02:30:56.312Z,10.81
2017-11-23T02:31:36.673Z,10.84
2017-11-23T02:32:17.218Z,10.86
2017-11-23T02:32:59.711Z,10.9
2017-11-23T02:33:40.029Z,10.83
2017-11-23T02:34:21.289Z,10.88
2017-11-23T02:35:02.289Z,10.9
2017-11-23T02:35:42.937Z,10.81
2017-11-23T02:36:23.535Z,10.83
2017-11-23T02:37:03.880Z,10.81
2017-11-23T02:37:44.716Z,10.76
2017-11-23T02:38:25.185Z,10.73
2017-11-23T02:39:05.711Z,10.7
2017-11-23T02:39:46.075Z,10.69
2017-11-23T02:40:28.793Z,10.73
2017-11-23T02:41:09.767Z,10.72
2017-11-23T02:41:50.709Z,10.68
2017-11-23T02:42:32.315Z,10.72
2017-11-23T02:43:15.709Z,10.75
2017-11-23T02:43:55.786Z,10.73
2017-11-23T02:44:40.032Z,10.8
2017-11-23T02:45:31.286Z,10.78
2017-11-23T02:46:15.045Z,10.9
2017-11-23T02:46:55.775Z,10.88
2017-11-23T02:47:36.279Z,10.93
2017-11-23T02:48:18.811Z,10.86
2017-11-23T02:48:58.351Z,10.86
2017-11-23T02:49:38.726Z,10.91
2017-11-23T02:50:19.187Z,10.9
2017-11-23T02:50:59.599Z,10.93
2017-11-23T02:51:42.159Z,10.91
2017-11-23T02:52:24.631Z,10.95
2017-11-23T02:53:05.120Z,10.99
2017-11-23T02:53:46.439Z,10.94
2017-11-23T02:54:27.995Z,10.95
2017-11-23T02:55:10.492Z,10.95
2017-11-23T02:55:53.397Z,11.05
2017-11-23T02:56:37.159Z,11.11
2017-11-23T02:58:55.548Z,11.09
2017-11-23T02:59:47.543Z,11.11
2017-11-23T03:00:39.922Z,11.03
2017-11-23T03:01:25.602Z,11.12
2017-11-23T03:02:05.947Z,11.08
2017-11-23T03:02:46.343Z,11.02
2017-11-23T03:03:26.837Z,10.83
2017-11-23T03:04:07.210Z,10.88
2017-11-23T03:04:47.622Z,10.88
2017-11-23T03:05:28.128Z,10.7
2017-11-23T03:06:08.525Z,10.69
2017-11-23T03:06:48.912Z,10.7
2017-11-23T03:07:29.409Z,10.72
2017-11-23T03:08:09.891Z,10.68
2017-11-23T03:08:50.332Z,10.69
2017-11-23T03:09:30.757Z,10.72
2017-11-23T03:10:11.172Z,10.65
2017-11-23T03:10:51.623Z,10.63
2017-11-23T03:11:32.022Z,10.66
2017-11-23T03:12:12.462Z,10.69
2017-11-23T03:12:52.881Z,10.72
2017-11-23T03:13:33.321Z,10.72
2017-11-23T03:14:13.701Z,10.69
2017-11-23T03:14:54.084Z,10.7
2017-11-23T03:15:34.556Z,10.68
2017-11-23T03:16:14.966Z,10.68
2017-11-23T03:16:55.373Z,10.68
2017-11-23T03:17:35.729Z,10.68
2017-11-23T03:18:16.095Z,10.66
2017-11-23T03:18:56.483Z,10.51
2017-11-23T03:19:37.029Z,10.66
2017-11-23T03:20:17.364Z,10.63
2017-11-23T03:20:57.757Z,10.66
2017-11-23T03:21:38.163Z,10.65
2017-11-23T03:22:18.531Z,10.7
2017-11-23T03:22:58.979Z,10.72
2017-11-23T03:23:39.407Z,10.76
2017-11-23T03:24:20.003Z,10.81
2017-11-23T03:25:00.518Z,10.87
2017-11-23T03:25:40.861Z,10.88
2017-11-23T03:26:24.168Z,10.88
2017-11-23T03:27:04.526Z,10.87
2017-11-23T03:27:45.274Z,10.93
2017-11-23T03:28:27.980Z,10.86
2017-11-23T03:29:09.263Z,10.9
2017-11-23T03:29:49.699Z,10.9
2017-11-23T03:30:31.102Z,11.02
2017-11-23T03:31:11.773Z,10.93
2017-11-23T03:31:52.165Z,10.99
2017-11-23T03:32:35.679Z,10.98
2017-11-23T03:33:16.291Z,11.03
2017-11-23T03:33:56.739Z,10.99
2017-11-23T03:34:37.110Z,10.99
2017-11-23T03:35:17.675Z,11.05
2017-11-23T03:36:00.163Z,11.06
2017-11-23T03:36:41.522Z,10.98
2017-11-23T03:37:21.867Z,11.09
2017-11-23T03:38:02.404Z,11.09
2017-11-23T03:38:42.913Z,11.09
2017-11-23T03:39:23.299Z,11.06
2017-11-23T03:40:04.113Z,11.08
2017-11-23T03:40:44.588Z,11.09
2017-11-23T03:41:25.177Z,11.12
2017-11-23T03:42:05.554Z,11.11
2017-11-23T03:42:45.862Z,11.09
2017-11-23T03:43:26.454Z,10.98
2017-11-23T03:44:07.156Z,11.01
2017-11-23T03:44:51.097Z,10.99
2017-11-23T03:45:31.554Z,10.98
2017-11-23T03:46:15.018Z,11.03
2017-11-23T03:46:55.695Z,10.95
2017-11-23T03:47:39.057Z,11.08
2017-11-23T03:48:22.239Z,11.06
2017-11-23T03:49:03.716Z,10.99
2017-11-23T03:49:44.804Z,11.06
2017-11-23T03:50:25.225Z,11.06
2017-11-23T03:51:05.921Z,11.08
2017-11-23T03:51:46.270Z,11.09
2017-11-23T03:52:26.714Z,11.06
2017-11-23T03:53:07.158Z,11.12
2017-11-23T03:53:47.687Z,11.02
2017-11-23T03:54:28.078Z,11.11
2017-11-23T03:55:23.252Z,11.12
2017-11-23T03:56:03.648Z,11.12
2017-11-23T03:56:43.918Z,11.11
2017-11-23T03:57:24.478Z,11.12
2017-11-23T03:58:05.059Z,11.09
2017-11-23T03:58:45.475Z,11.16
2017-11-23T03:59:25.865Z,11.19
2017-11-23T04:00:06.394Z,11.16
2017-11-23T04:00:46.739Z,11.08
2017-11-23T04:01:27.137Z,11.11
2017-11-23T04:02:07.510Z,11.11
2017-11-23T04:02:47.920Z,11.17
2017-11-23T04:03:28.428Z,11.09
2017-11-23T04:41:40.550Z,10.72
2017-11-23T04:42:23.485Z,10.63
2017-11-23T04:43:03.855Z,10.69
2017-11-23T04:43:44.304Z,10.69
2017-11-23T04:44:24.615Z,10.65
2017-11-23T04:45:05.034Z,10.69
2017-11-23T04:45:45.423Z,10.76
2017-11-23T04:46:25.814Z,10.72
2017-11-23T04:47:06.282Z,10.76
2017-11-23T04:47:46.587Z,10.83
2017-11-23T04:48:27.024Z,10.83
2017-11-23T04:49:07.396Z,10.91
2017-11-23T04:49:47.802Z,10.93
2017-11-23T04:50:28.229Z,10.9
2017-11-23T04:51:08.591Z,10.94
2017-11-23T04:51:48.935Z,10.94
2017-11-23T04:52:29.400Z,10.98
2017-11-23T04:53:12.762Z,11.03
2017-11-23T04:53:53.129Z,11.06
2017-11-23T04:54:33.537Z,11.06
2017-11-23T04:55:13.978Z,11.03
2017-11-23T04:55:54.358Z,11.06
2017-11-23T04:56:35.029Z,11.02
2017-11-23T04:57:15.923Z,11.02
2017-11-23T04:57:56.310Z,10.99
2017-11-23T04:58:36.737Z,10.91
2017-11-23T04:59:17.195Z,10.99
2017-11-23T04:59:57.594Z,10.95
2017-11-23T05:00:37.965Z,10.99
2017-11-23T05:01:18.357Z,11.06
2017-11-23T05:01:58.729Z,11.05
2017-11-23T05:02:39.201Z,11.09
2017-11-23T05:03:19.593Z,10.98
2017-11-23T05:04:00.360Z,11.03
2017-11-23T05:04:40.775Z,11.03
2017-11-23T05:05:21.260Z,11.12
2017-11-23T05:06:01.659Z,11.17
2017-11-23T05:06:42.310Z,11.03
2017-11-23T05:07:22.544Z,11.11
2017-11-23T05:08:02.962Z,11.17
2017-11-23T05:08:43.284Z,11.12
2017-11-23T05:09:23.878Z,11.12
2017-11-23T05:10:04.297Z,11.03
2017-11-23T05:10:44.724Z,11.13
2017-11-23T05:11:25.200Z,11.11
2017-11-23T05:12:05.577Z,11.09
2017-11-23T05:12:46.029Z,10.99
2017-11-23T05:13:26.551Z,11.08
2017-11-23T05:14:06.897Z,11.03
2017-11-23T05:14:47.836Z,11.05
2017-11-23T05:15:28.245Z,10.99
2017-11-23T05:16:08.628Z,11.05
2017-11-23T05:16:49.047Z,11.03
2017-11-23T05:17:29.461Z,11.09
2017-11-23T05:18:09.868Z,10.98
2017-11-23T05:18:50.302Z,11.08
2017-11-23T05:19:30.823Z,11.09
2017-11-23T05:20:12.412Z,10.95
2017-11-23T05:20:52.770Z,11.06
2017-11-23T05:21:33.228Z,11.05
2017-11-23T05:22:13.591Z,10.99
2017-11-23T05:22:53.999Z,10.99
2017-11-23T05:23:34.789Z,10.98
2017-11-23T05:24:15.254Z,10.94
2017-11-23T05:24:55.906Z,11.01
2017-11-23T05:25:36.187Z,11.01
2017-11-23T05:26:16.646Z,10.94
2017-11-23T05:26:57.081Z,10.88
2017-11-23T05:27:37.514Z,10.98
2017-11-23T05:28:17.836Z,10.99
2017-11-23T05:28:58.267Z,11.02
2017-11-23T05:29:38.621Z,11.05
2017-11-23T05:30:20.027Z,10.95
2017-11-23T05:31:00.451Z,10.99
2017-11-23T05:31:40.856Z,11.01
2017-11-23T05:32:21.815Z,11.01
2017-11-23T05:33:02.186Z,11.02
2017-11-23T05:33:42.581Z,10.95
2017-11-23T05:34:23.002Z,11.01
2017-11-23T05:35:04.477Z,11.05
2017-11-23T05:35:44.760Z,11.08
2017-11-23T05:36:25.243Z,11.11
2017-11-23T05:37:05.585Z,11.13
2017-11-23T05:37:46.538Z,11.02
2017-11-23T05:38:26.994Z,11.08
2017-11-23T05:39:07.317Z,11.03
2017-11-23T05:39:48.042Z,11.19
2017-11-23T05:40:28.991Z,11.09
2017-11-23T05:41:09.522Z,11.19
2017-11-23T05:41:49.861Z,11.12
2017-11-23T05:42:30.351Z,11.11
2017-11-23T05:43:11.003Z,11.19
2017-11-23T05:43:51.432Z,11.19
2017-11-23T05:44:31.816Z,11.12
2017-11-23T05:45:12.266Z,11.12
2017-11-23T05:45:54.693Z,11.19
2017-11-23T05:46:35.193Z,11.16
2017-11-23T05:47:15.458Z,11.2
2017-11-23T05:47:56.436Z,11.28
2017-11-23T05:48:36.906Z,11.28
2017-11-23T05:49:17.317Z,11.26
2017-11-23T05:49:57.680Z,11.3
2017-11-23T05:50:38.096Z,11.36
2017-11-23T05:51:18.579Z,11.39
2017-11-23T05:51:59.015Z,11.39
2017-11-23T05:52:39.504Z,11.46
2017-11-23T05:53:19.872Z,11.51
2017-11-23T05:55:20.274Z,11.49
2017-11-23T05:56:02.884Z,11.48
2017-11-23T05:56:43.348Z,11.48
2017-11-23T05:57:23.989Z,11.56
2017-11-23T05:58:08.351Z,11.51
2017-11-23T05:59:47.010Z,11.64
2017-11-23T06:00:29.411Z,11.63
2017-11-23T06:01:09.584Z,11.66
2017-11-23T06:01:50.016Z,11.64
2017-11-23T06:02:30.606Z,11.75
2017-11-23T06:03:11.865Z,11.69
2017-11-23T06:03:53.224Z,11.66
2017-11-23T06:04:33.310Z,11.63
2017-11-23T06:05:15.171Z,11.78
2017-11-23T06:05:55.616Z,11.84
2017-11-23T06:06:36.001Z,11.74
2017-11-23T06:07:16.457Z,11.87
2017-11-23T06:07:56.820Z,11.79
2017-11-23T06:08:39.530Z,11.93
2017-11-23T06:09:20.449Z,11.88
2017-11-23T06:10:01.131Z,12
2017-11-23T06:10:41.643Z,11.98
2017-11-23T06:11:22.288Z,11.97
2017-11-23T06:12:02.544Z,11.96
2017-11-23T06:12:42.971Z,12.05
2017-11-23T06:13:23.659Z,12.12
2017-11-23T06:14:04.058Z,12.05
2017-11-23T06:14:44.441Z,12.15
2017-11-23T06:15:25.636Z,12.13
2017-11-23T06:16:06.111Z,12.21
2017-11-23T06:16:46.726Z,12.26
2017-11-23T06:17:27.150Z,12.29
2017-11-23T06:18:07.595Z,12.31
2017-11-23T06:18:48.746Z,12.34
2017-11-23T06:19:29.194Z,12.31
2017-11-23T06:20:09.801Z,12.37
2017-11-23T06:20:50.621Z,12.43
2017-11-23T06:21:32.345Z,12.41
2017-11-23T06:22:13.326Z,12.46
2017-11-23T06:22:54.712Z,12.52
2017-11-23T06:23:36.741Z,12.46
2017-11-23T06:24:20.303Z,12.48
2017-11-23T06:25:00.863Z,12.46
2017-11-23T06:25:41.631Z,12.44
2017-11-23T06:26:23.127Z,12.58
2017-11-23T06:27:04.218Z,12.56
2017-11-23T06:27:45.427Z,12.55
2017-11-23T06:28:26.557Z,12.59
2017-11-23T06:29:07.066Z,12.59
2017-11-23T06:29:47.564Z,12.59
2017-11-23T06:30:28.082Z,12.58
2017-11-23T06:31:08.607Z,12.63
2017-11-23T06:31:49.189Z,12.71
2017-11-23T06:32:30.698Z,12.63
2017-11-23T06:33:12.487Z,12.58
2017-11-23T06:33:52.963Z,12.61
2017-11-23T06:34:34.688Z,12.58
2017-11-23T06:35:18.881Z,12.62
2017-11-23T06:36:01.330Z,12.56
2017-11-23T06:36:42.011Z,12.59
2017-11-23T06:37:22.546Z,12.63
2017-11-23T06:38:04.051Z,12.74
2017-11-23T06:38:44.487Z,12.69
2017-11-23T06:39:25.949Z,12.58
2017-11-23T06:40:06.402Z,12.59
2017-11-23T06:40:47.339Z,12.63
2017-11-23T06:41:29.035Z,12.7
2017-11-23T06:42:09.485Z,12.74
2017-11-23T06:42:51.442Z,12.63
2017-11-23T06:43:32.541Z,12.7
2017-11-23T06:44:13.517Z,12.59
2017-11-23T06:44:55.628Z,12.73
2017-11-23T06:45:37.112Z,12.63
2017-11-23T06:46:17.755Z,12.7
2017-11-23T06:46:58.466Z,12.74
2017-11-23T06:47:40.618Z,12.73
2017-11-23T06:48:22.404Z,12.76
2017-11-23T06:49:03.944Z,12.71
2017-11-23T06:49:45.696Z,12.71
2017-11-23T06:50:30.432Z,12.73
2017-11-23T06:51:11.289Z,12.77
2017-11-23T06:51:54.711Z,12.73
2017-11-23T06:52:35.224Z,12.71
2017-11-23T06:53:15.734Z,12.73
2017-11-23T06:53:58.155Z,12.71
2017-11-23T06:55:47.408Z,12.8
2017-11-23T06:56:39.286Z,12.74
2017-11-23T06:57:20.004Z,12.71
2017-11-23T06:58:00.785Z,12.77
2017-11-23T06:58:43.476Z,12.76
2017-11-23T06:59:23.436Z,12.76
2017-11-23T07:00:04.171Z,12.73
2017-11-23T07:00:44.718Z,12.66
2017-11-23T07:01:25.645Z,12.66
2017-11-23T07:02:06.480Z,12.74
2017-11-23T07:02:47.413Z,12.74
2017-11-23T07:03:28.055Z,12.71
2017-11-23T07:04:08.506Z,12.56
2017-11-23T07:04:49.051Z,12.69
2017-11-23T07:05:29.390Z,12.63
2017-11-23T07:06:09.771Z,12.66
2017-11-23T07:06:50.172Z,12.62
2017-11-23T07:07:33.458Z,12.61
2017-11-23T07:08:17.663Z,12.63
2017-11-23T07:09:00.573Z,12.58
2017-11-23T07:09:41.440Z,12.61
2017-11-23T07:10:21.933Z,12.67
2017-11-23T07:12:39.289Z,12.71
2017-11-23T07:14:30.669Z,12.8
2017-11-23T07:15:10.605Z,12.79
2017-11-23T07:15:51.494Z,12.79
2017-11-23T07:16:32.738Z,12.74
2017-11-23T07:17:13.267Z,12.73
2017-11-23T07:17:54.005Z,12.8
2017-11-23T07:18:34.500Z,12.77
2017-11-23T07:19:14.945Z,12.77
2017-11-23T07:19:55.451Z,12.74
2017-11-23T07:20:35.934Z,12.76
2017-11-23T07:21:18.005Z,12.87
2017-11-23T07:21:57.736Z,12.79
2017-11-23T07:22:38.087Z,12.87
2017-11-23T07:23:18.580Z,12.77
2017-11-23T07:24:00.090Z,12.79
2017-11-23T07:24:40.468Z,12.77
2017-11-23T07:25:21.534Z,12.81
2017-11-23T07:26:02.378Z,12.89
2017-11-23T07:26:43.638Z,12.84
2017-11-23T07:27:24.555Z,12.84
2017-11-23T07:28:04.988Z,12.84
2017-11-23T07:28:46.623Z,12.95
2017-11-23T07:29:27.271Z,12.91
2017-11-23T07:30:08.629Z,12.94
2017-11-23T07:30:49.399Z,12.98
2017-11-23T07:31:29.873Z,12.98
2017-11-23T07:32:10.404Z,12.95
2017-11-23T07:32:50.822Z,12.94
2017-11-23T07:33:31.280Z,13.04
2017-11-23T07:34:11.768Z,13.09
2017-11-23T07:34:52.204Z,13.07
2017-11-23T07:35:36.395Z,13.1
2017-11-23T07:36:19.448Z,13.14
2017-11-23T07:36:59.854Z,13.17
2017-11-23T07:37:40.394Z,13.25
2017-11-23T07:38:21.495Z,13.29
2017-11-23T07:39:01.606Z,13.22
2017-11-23T07:39:42.229Z,13.22
2017-11-23T07:40:23.031Z,13.38
2017-11-23T07:41:03.986Z,13.31
2017-11-23T07:41:44.565Z,13.35
2017-11-23T07:42:24.919Z,13.29
2017-11-23T07:43:05.828Z,13.28
2017-11-23T07:43:46.789Z,13.28
2017-11-23T07:44:27.617Z,13.31
2017-11-23T07:45:08.989Z,13.29
2017-11-23T07:45:49.569Z,13.38
2017-11-23T07:46:30.145Z,13.27
2017-11-23T07:47:10.761Z,13.25
2017-11-23T07:47:52.084Z,13.24
2017-11-23T07:48:33.513Z,13.36
2017-11-23T07:49:13.454Z,13.35
2017-11-23T07:49:54.227Z,13.36
2017-11-23T07:50:34.934Z,13.29
2017-11-23T07:51:15.406Z,13.38
2017-11-23T07:51:56.483Z,13.43
2017-11-23T07:52:37.968Z,13.38
2017-11-23T07:53:19.529Z,13.32
2017-11-23T07:54:00.380Z,13.39
2017-11-23T07:54:41.765Z,13.5
2017-11-23T07:55:22.300Z,13.55
2017-11-23T07:56:04.790Z,13.61
2017-11-23T07:56:45.146Z,13.54
2017-11-23T07:57:26.633Z,13.53
2017-11-23T07:58:13.839Z,13.61
2017-11-23T07:58:55.543Z,13.48
2017-11-23T07:59:35.636Z,13.59
2017-11-23T08:00:16.601Z,13.59
2017-11-23T08:00:57.786Z,13.69
2017-11-23T08:01:38.745Z,13.75
2017-11-23T08:02:19.315Z,13.62
2017-11-23T08:03:00.303Z,13.66
2017-11-23T08:03:42.227Z,13.84
2017-11-23T08:04:23.334Z,13.76
2017-11-23T08:05:03.644Z,13.71
2017-11-23T08:05:44.853Z,13.79
2017-11-23T08:06:25.372Z,13.76
2017-11-23T08:07:06.068Z,13.68
2017-11-23T08:07:46.666Z,13.72
2017-11-23T08:08:29.584Z,13.81
2017-11-23T08:09:09.338Z,13.84
2017-11-23T08:09:49.706Z,13.9
2017-11-23T08:10:31.184Z,13.88
2017-11-23T08:11:11.754Z,13.88
2017-11-23T08:11:53.552Z,13.91
2017-11-23T08:12:34.562Z,13.96
2017-11-23T08:13:15.113Z,14.08
2017-11-23T08:13:55.701Z,14.06
2017-11-23T08:14:36.651Z,14.17
2017-11-23T08:15:17.994Z,14.13
2017-11-23T08:15:58.823Z,14.16
2017-11-23T08:16:39.586Z,14.17
2017-11-23T08:17:19.954Z,14.34
2017-11-23T08:18:00.321Z,14.31
2017-11-23T08:18:40.692Z,14.31
2017-11-23T08:19:21.539Z,14.31
2017-11-23T08:20:02.184Z,14.41
2017-11-23T08:20:42.720Z,14.45
2017-11-23T08:21:23.948Z,14.6
2017-11-23T08:22:05.115Z,14.69
2017-11-23T08:22:45.536Z,14.66
2017-11-23T08:23:26.116Z,14.78
2017-11-23T08:24:08.125Z,14.83
2017-11-23T08:24:49.175Z,14.9
2017-11-23T08:25:30.546Z,14.94
2017-11-23T08:26:10.529Z,14.98
2017-11-23T08:26:51.256Z,15.11
2017-11-23T08:27:31.917Z,15.16
2017-11-23T08:28:13.365Z,15.16
2017-11-23T08:28:54.088Z,15.22
2017-11-23T08:29:34.821Z,15.2
2017-11-23T08:30:15.301Z,15.37
2017-11-23T08:30:56.095Z,15.38
2017-11-23T08:31:36.777Z,15.43
2017-11-23T08:32:17.248Z,15.41
2017-11-23T08:32:57.688Z,15.38
2017-11-23T08:33:38.096Z,15.49
2017-11-23T08:34:19.599Z,15.52
2017-11-23T08:34:59.999Z,15.43
2017-11-23T08:35:40.851Z,15.44
2017-11-23T08:36:21.492Z,15.52
2017-11-23T08:37:01.934Z,15.6
2017-11-23T08:37:42.294Z,15.6
2017-11-23T08:38:22.679Z,15.67
2017-11-23T08:39:03.176Z,15.68
2017-11-23T08:39:43.681Z,15.76
2017-11-23T08:40:24.046Z,15.7
2017-11-23T08:41:04.514Z,15.67
2017-11-23T08:41:45.000Z,15.73
2017-11-23T08:42:27.260Z,15.73
2017-11-23T08:43:07.758Z,15.84
2017-11-23T08:43:48.146Z,15.85
2017-11-23T08:44:28.597Z,16.03
2017-11-23T08:45:09.088Z,16.06
2017-11-23T08:45:49.898Z,16.08
2017-11-23T08:46:31.100Z,16.25
2017-11-23T08:47:11.576Z,16.25
2017-11-23T08:47:52.098Z,16.26
2017-11-23T08:50:51.224Z,16.65
2017-11-23T08:51:32.249Z,16.81
2017-11-23T08:52:12.680Z,16.88
2017-11-23T08:53:05.651Z,16.99
2017-11-23T08:53:46.205Z,16.98
2017-11-23T08:54:26.565Z,17.1
2017-11-23T08:55:06.975Z,17.07
2017-11-23T08:55:47.559Z,17.14
2017-11-23T08:56:30.407Z,16.95
2017-11-23T08:57:10.799Z,16.8
2017-11-23T08:57:51.500Z,16.81
2017-11-23T08:58:31.887Z,16.85
2017-11-23T08:59:12.742Z,16.85
2017-11-23T08:59:52.929Z,16.77
2017-11-23T09:00:33.449Z,16.75
2017-11-23T09:01:14.373Z,16.62
2017-11-23T09:01:55.021Z,16.67
2017-11-23T09:02:35.417Z,16.67
2017-11-23T09:03:16.358Z,16.73
2017-11-23T09:03:57.108Z,16.78
2017-11-23T09:04:37.628Z,16.91
2017-11-23T09:05:18.111Z,16.91
2017-11-23T09:06:02.712Z,17.15
2017-11-23T09:06:47.533Z,17.3
2017-11-23T09:07:32.125Z,17.32
2017-11-23T09:08:11.852Z,17.25
2017-11-23T09:08:53.223Z,17.15
2017-11-23T09:09:33.907Z,17.35
2017-11-23T09:10:16.793Z,17.43
2017-11-23T09:10:58.103Z,17.55
2017-11-23T09:11:41.310Z,17.73
2017-11-23T09:12:23.910Z,17.79
2017-11-23T09:13:04.499Z,17.73
2017-11-23T09:13:46.297Z,17.8
2017-11-23T09:14:28.276Z,17.86
2017-11-23T09:15:07.685Z,18.02
2017-11-23T09:15:53.115Z,18.2
2017-11-23T09:16:33.125Z,18.29
2017-11-23T09:17:16.173Z,18.14
2017-11-23T09:18:00.539Z,18.09
2017-11-23T09:18:41.576Z,18.07
2017-11-23T09:19:23.447Z,18.11
2017-11-23T09:20:08.006Z,18.14
2017-11-23T09:20:47.659Z,18.34
2017-11-23T09:21:33.602Z,18.32
2017-11-23T09:22:12.994Z,18.44
2017-11-23T09:22:53.509Z,18.39
2017-11-23T09:23:35.989Z,18.35
2017-11-23T09:24:16.617Z,18.26
2017-11-23T09:24:56.983Z,18.26
2017-11-23T09:25:37.834Z,18.13
2017-11-23T09:26:29.485Z,18.17
2017-11-23T09:27:15.033Z,18.31
2017-11-23T09:28:54.115Z,18.46
2017-11-23T09:29:43.759Z,18.34
2017-11-23T09:30:31.847Z,18.25
2017-11-23T09:32:28.399Z,18.47
2017-11-23T09:36:31.375Z,18.51
2017-11-23T09:37:10.552Z,18.38
2017-11-23T09:37:51.984Z,18.5
2017-11-23T09:38:32.360Z,18.57
2017-11-23T09:39:13.421Z,18.66
2017-11-23T09:39:54.437Z,18.64
2017-11-23T09:40:34.482Z,18.68
2017-11-23T09:41:15.095Z,18.71
2017-11-23T09:41:55.926Z,18.66
2017-11-23T09:42:36.453Z,18.74
2017-11-23T09:43:17.450Z,18.44
2017-11-23T09:43:58.347Z,18.42
2017-11-23T09:44:39.799Z,18.46
2017-11-23T09:45:22.482Z,18.44
2017-11-23T09:46:04.453Z,18.47
2017-11-23T09:46:45.116Z,18.59
2017-11-23T09:47:26.005Z,18.62
2017-11-23T09:48:11.945Z,18.68
2017-11-23T09:48:52.539Z,18.41
2017-11-23T09:49:33.420Z,18.29
2017-11-23T09:50:14.341Z,18.34
2017-11-23T09:50:57.178Z,18.34
2017-11-23T09:51:39.560Z,18.46
2017-11-23T09:52:20.559Z,18.49